Terminal Aerodrome Forecast
Issued by NWS Cleveland, OH

Home | Current Version | Previous Version | Text Only | Print | Product List | Glossary On
Versions: 1 2 3 4 5 6 7 8 9 10 11 12 13 14 15 16 17 18 19 20
000
FTUS41 KCLE 011300 AAA
TAFYNG
TAF AMD
KYNG 011357Z 0114/0212 06005KT 1/4SM FG VV001
     FM011500 07005KT 2SM BR OVC004
     FM011600 08005KT 4SM BR BKN008
     FM011700 09005KT P6SM BKN015
     FM011800 09005KT P6SM BKN025
     FM011900 09005KT P6SM BKN035
     FM012200 12003KT P6SM SCT035
     FM020600 12003KT 2SM BR SCT004=

USA.gov is the U.S. government's official web portal to all federal, state and local government web resources and services.